sensor_id;sensor_type;location;lat;lon;timestamp;temperature;humidity
75786;DHT22;64402;44.708;37.644;2022-10-28T00:00:28;14.17;79.11
75786;DHT22;64402;44.708;37.644;2022-10-28T00:02:55;14.15;79.21
75786;DHT22;64402;44.708;37.644;2022-10-28T00:05:21;14.14;79.38
75786;DHT22;64402;44.708;37.644;2022-10-28T00:07:47;14.12;79.34
75786;DHT22;64402;44.708;37.644;2022-10-28T00:10:13;14.13;79.21
75786;DHT22;64402;44.708;37.644;2022-10-28T00:12:39;14.14;79.17
75786;DHT22;64402;44.708;37.644;2022-10-28T00:15:06;14.12;79.48
75786;DHT22;64402;44.708;37.644;2022-10-28T00:17:32;14.08;79.28
75786;DHT22;64402;44.708;37.644;2022-10-28T00:19:58;14.05;79.31
75786;DHT22;64402;44.708;37.644;2022-10-28T00:22:24;13.99;79.43
75786;DHT22;64402;44.708;37.644;2022-10-28T00:24:50;13.94;79.62
75786;DHT22;64402;44.708;37.644;2022-10-28T00:27:16;13.89;79.64
75786;DHT22;64402;44.708;37.644;2022-10-28T00:29:42;13.86;79.62
75786;DHT22;64402;44.708;37.644;2022-10-28T00:32:08;13.82;79.95
75786;DHT22;64402;44.708;37.644;2022-10-28T00:34:35;13.73;80.23
75786;DHT22;64402;44.708;37.644;2022-10-28T00:37:01;13.65;80.37
75786;DHT22;64402;44.708;37.644;2022-10-28T00:39:27;13.59;80.42
75786;DHT22;64402;44.708;37.644;2022-10-28T00:41:56;13.54;80.81
75786;DHT22;64402;44.708;37.644;2022-10-28T00:47:31;13.39;81.27
75786;DHT22;64402;44.708;37.644;2022-10-28T00:50:11;13.35;81.96
75786;DHT22;64402;44.708;37.644;2022-10-28T00:52:39;13.30;81.08
75786;DHT22;64402;44.708;37.644;2022-10-28T00:55:07;13.24;81.20
75786;DHT22;64402;44.708;37.644;2022-10-28T00:57:35;13.19;81.62
75786;DHT22;64402;44.708;37.644;2022-10-28T01:00:05;13.10;81.75
75786;DHT22;64402;44.708;37.644;2022-10-28T01:02:36;13.02;81.78
75786;DHT22;64402;44.708;37.644;2022-10-28T01:05:07;12.92;82.65
75786;DHT22;64402;44.708;37.644;2022-10-28T01:07:33;12.91;82.43
75786;DHT22;64402;44.708;37.644;2022-10-28T01:10:00;12.88;82.78
75786;DHT22;64402;44.708;37.644;2022-10-28T01:21:05;12.90;83.81
75786;DHT22;64402;44.708;37.644;2022-10-28T01:35:18;12.88;83.47
75786;DHT22;64402;44.708;37.644;2022-10-28T01:40:46;12.86;83.08
75786;DHT22;64402;44.708;37.644;2022-10-28T01:43:27;12.85;83.38
75786;DHT22;64402;44.708;37.644;2022-10-28T01:46:00;12.80;83.00
75786;DHT22;64402;44.708;37.644;2022-10-28T01:48:44;12.73;83.22
75786;DHT22;64402;44.708;37.644;2022-10-28T01:51:19;12.69;82.78
75786;DHT22;64402;44.708;37.644;2022-10-28T01:53:50;12.60;82.88
75786;DHT22;64402;44.708;37.644;2022-10-28T01:56:22;12.56;83.27
75786;DHT22;64402;44.708;37.644;2022-10-28T01:58:51;12.49;83.32
75786;DHT22;64402;44.708;37.644;2022-10-28T02:01:18;12.46;83.17
75786;DHT22;64402;44.708;37.644;2022-10-28T02:03:46;12.44;83.29
75786;DHT22;64402;44.708;37.644;2022-10-28T02:06:18;12.42;83.42
75786;DHT22;64402;44.708;37.644;2022-10-28T02:09:03;12.42;83.41
75786;DHT22;64402;44.708;37.644;2022-10-28T02:14:34;12.37;83.12
75786;DHT22;64402;44.708;37.644;2022-10-28T02:23:21;12.47;85.06
75786;DHT22;64402;44.708;37.644;2022-10-28T02:25:27;12.50;84.60
75786;DHT22;64402;44.708;37.644;2022-10-28T02:33:36;12.48;84.03
75786;DHT22;64402;44.708;37.644;2022-10-28T02:36:11;12.45;83.96
75786;DHT22;64402;44.708;37.644;2022-10-28T02:38:44;12.41;83.92
75786;DHT22;64402;44.708;37.644;2022-10-28T02:42:05;12.32;83.82
75786;DHT22;64402;44.708;37.644;2022-10-28T02:44:16;12.22;84.01
75786;DHT22;64402;44.708;37.644;2022-10-28T02:46:45;12.21;84.45
75786;DHT22;64402;44.708;37.644;2022-10-28T02:49:14;12.18;84.47
75786;DHT22;64402;44.708;37.644;2022-10-28T02:51:47;12.21;83.80
75786;DHT22;64402;44.708;37.644;2022-10-28T02:54:17;12.21;83.98
75786;DHT22;64402;44.708;37.644;2022-10-28T02:57:01;12.23;84.23
75786;DHT22;64402;44.708;37.644;2022-10-28T02:59:28;12.29;83.97
75786;DHT22;64402;44.708;37.644;2022-10-28T03:01:55;12.32;83.71
75786;DHT22;64402;44.708;37.644;2022-10-28T03:04:21;12.29;83.87
75786;DHT22;64402;44.708;37.644;2022-10-28T03:06:47;12.29;83.98
75786;DHT22;64402;44.708;37.644;2022-10-28T03:09:13;12.33;83.81
75786;DHT22;64402;44.708;37.644;2022-10-28T03:11:39;12.38;83.74
75786;DHT22;64402;44.708;37.644;2022-10-28T03:14:06;12.43;83.63
75786;DHT22;64402;44.708;37.644;2022-10-28T03:16:32;12.48;83.58
75786;DHT22;64402;44.708;37.644;2022-10-28T03:18:58;12.50;83.73
75786;DHT22;64402;44.708;37.644;2022-10-28T03:21:24;12.52;83.48
75786;DHT22;64402;44.708;37.644;2022-10-28T03:23:50;12.50;83.55
75786;DHT22;64402;44.708;37.644;2022-10-28T03:26:17;12.53;83.39
75786;DHT22;64402;44.708;37.644;2022-10-28T03:28:43;12.58;83.32
75786;DHT22;64402;44.708;37.644;2022-10-28T03:31:09;12.61;83.05
75786;DHT22;64402;44.708;37.644;2022-10-28T03:33:35;12.59;83.40
75786;DHT22;64402;44.708;37.644;2022-10-28T03:36:01;12.60;83.36
75786;DHT22;64402;44.708;37.644;2022-10-28T03:38:27;12.57;83.49
75786;DHT22;64402;44.708;37.644;2022-10-28T03:40:54;12.59;83.63
75786;DHT22;64402;44.708;37.644;2022-10-28T03:43:20;12.59;83.45
75786;DHT22;64402;44.708;37.644;2022-10-28T03:45:46;12.58;83.56
75786;DHT22;64402;44.708;37.644;2022-10-28T03:48:13;12.57;83.64
75786;DHT22;64402;44.708;37.644;2022-10-28T03:50:39;12.57;83.50
75786;DHT22;64402;44.708;37.644;2022-10-28T03:53:05;12.58;83.65
75786;DHT22;64402;44.708;37.644;2022-10-28T03:55:31;12.62;83.56
75786;DHT22;64402;44.708;37.644;2022-10-28T03:58:01;12.65;83.23
75786;DHT22;64402;44.708;37.644;2022-10-28T04:00:28;12.74;83.15
75786;DHT22;64402;44.708;37.644;2022-10-28T04:02:55;12.77;83.02
75786;DHT22;64402;44.708;37.644;2022-10-28T04:05:21;12.78;82.77
75786;DHT22;64402;44.708;37.644;2022-10-28T04:07:47;12.82;82.56
75786;DHT22;64402;44.708;37.644;2022-10-28T04:10:14;12.87;82.56
75786;DHT22;64402;44.708;37.644;2022-10-28T04:12:40;12.92;82.37
75786;DHT22;64402;44.708;37.644;2022-10-28T04:15:06;12.97;82.35
75786;DHT22;64402;44.708;37.644;2022-10-28T04:17:33;13.00;82.11
75786;DHT22;64402;44.708;37.644;2022-10-28T04:19:59;13.04;81.89
75786;DHT22;64402;44.708;37.644;2022-10-28T04:22:25;13.09;81.52
75786;DHT22;64402;44.708;37.644;2022-10-28T04:24:51;13.15;81.43
75786;DHT22;64402;44.708;37.644;2022-10-28T04:27:19;13.09;81.46
75786;DHT22;64402;44.708;37.644;2022-10-28T04:29:46;12.90;81.54
75786;DHT22;64402;44.708;37.644;2022-10-28T04:32:12;12.95;81.57
75786;DHT22;64402;44.708;37.644;2022-10-28T04:34:38;13.04;81.50
75786;DHT22;64402;44.708;37.644;2022-10-28T04:37:04;13.08;81.27
75786;DHT22;64402;44.708;37.644;2022-10-28T04:39:30;13.12;81.11
75786;DHT22;64402;44.708;37.644;2022-10-28T04:41:56;13.17;80.81
75786;DHT22;64402;44.708;37.644;2022-10-28T04:44:22;13.23;81.20
75786;DHT22;64402;44.708;37.644;2022-10-28T04:46:48;13.34;81.23
75786;DHT22;64402;44.708;37.644;2022-10-28T04:49:14;13.38;81.01
75786;DHT22;64402;44.708;37.644;2022-10-28T04:51:40;13.45;81.26
75786;DHT22;64402;44.708;37.644;2022-10-28T04:54:07;13.49;81.17
75786;DHT22;64402;44.708;37.644;2022-10-28T04:56:33;13.52;81.29
75786;DHT22;64402;44.708;37.644;2022-10-28T04:58:59;13.56;81.15
75786;DHT22;64402;44.708;37.644;2022-10-28T05:01:25;13.63;81.17
75786;DHT22;64402;44.708;37.644;2022-10-28T05:03:52;13.68;80.97
75786;DHT22;64402;44.708;37.644;2022-10-28T05:06:18;13.70;80.97
75786;DHT22;64402;44.708;37.644;2022-10-28T05:08:44;13.76;80.80
75786;DHT22;64402;44.708;37.644;2022-10-28T05:11:10;13.83;80.75
75786;DHT22;64402;44.708;37.644;2022-10-28T05:13:36;13.91;80.40
75786;DHT22;64402;44.708;37.644;2022-10-28T05:16:02;13.99;80.20
75786;DHT22;64402;44.708;37.644;2022-10-28T05:18:28;14.06;79.95
75786;DHT22;64402;44.708;37.644;2022-10-28T05:20:54;14.12;79.64
75786;DHT22;64402;44.708;37.644;2022-10-28T05:23:22;14.20;79.68
75786;DHT22;64402;44.708;37.644;2022-10-28T05:25:49;14.25;78.91
75786;DHT22;64402;44.708;37.644;2022-10-28T05:28:15;14.24;79.06
75786;DHT22;64402;44.708;37.644;2022-10-28T05:30:42;14.32;79.56
75786;DHT22;64402;44.708;37.644;2022-10-28T05:33:08;14.37;79.30
75786;DHT22;64402;44.708;37.644;2022-10-28T05:35:39;14.36;78.37
75786;DHT22;64402;44.708;37.644;2022-10-28T05:38:05;14.39;78.92
75786;DHT22;64402;44.708;37.644;2022-10-28T05:40:31;14.45;78.85
75786;DHT22;64402;44.708;37.644;2022-10-28T05:43:01;14.50;78.40
75786;DHT22;64402;44.708;37.644;2022-10-28T05:45:28;14.54;78.29
75786;DHT22;64402;44.708;37.644;2022-10-28T05:47:54;14.52;78.73
75786;DHT22;64402;44.708;37.644;2022-10-28T05:50:21;14.60;78.40
75786;DHT22;64402;44.708;37.644;2022-10-28T05:52:49;14.73;78.29
75786;DHT22;64402;44.708;37.644;2022-10-28T05:55:17;14.82;77.55
75786;DHT22;64402;44.708;37.644;2022-10-28T05:57:48;14.91;77.20
75786;DHT22;64402;44.708;37.644;2022-10-28T06:00:16;14.98;76.66
75786;DHT22;64402;44.708;37.644;2022-10-28T06:02:43;15.06;76.79
75786;DHT22;64402;44.708;37.644;2022-10-28T06:05:10;15.07;76.92
75786;DHT22;64402;44.708;37.644;2022-10-28T06:07:37;14.81;77.47
75786;DHT22;64402;44.708;37.644;2022-10-28T06:10:05;14.81;77.80
75786;DHT22;64402;44.708;37.644;2022-10-28T06:12:32;14.92;77.47
75786;DHT22;64402;44.708;37.644;2022-10-28T06:14:58;14.99;76.74
75786;DHT22;64402;44.708;37.644;2022-10-28T06:17:25;15.04;77.15
75786;DHT22;64402;44.708;37.644;2022-10-28T06:19:51;15.18;76.55
75786;DHT22;64402;44.708;37.644;2022-10-28T06:22:17;15.29;76.49
75786;DHT22;64402;44.708;37.644;2022-10-28T06:24:43;15.23;75.92
75786;DHT22;64402;44.708;37.644;2022-10-28T06:27:09;15.18;75.91
75786;DHT22;64402;44.708;37.644;2022-10-28T06:29:35;15.22;75.92
75786;DHT22;64402;44.708;37.644;2022-10-28T06:32:01;15.24;76.18
75786;DHT22;64402;44.708;37.644;2022-10-28T06:34:28;15.29;75.42
75786;DHT22;64402;44.708;37.644;2022-10-28T06:36:54;15.36;75.54
75786;DHT22;64402;44.708;37.644;2022-10-28T06:39:20;15.37;75.50
75786;DHT22;64402;44.708;37.644;2022-10-28T06:41:46;15.42;74.78
75786;DHT22;64402;44.708;37.644;2022-10-28T06:44:12;15.49;74.99
75786;DHT22;64402;44.708;37.644;2022-10-28T06:46:38;15.42;75.07
75786;DHT22;64402;44.708;37.644;2022-10-28T06:49:04;15.43;74.45
75786;DHT22;64402;44.708;37.644;2022-10-28T06:51:30;15.40;74.78
75786;DHT22;64402;44.708;37.644;2022-10-28T06:53:57;15.34;74.28
75786;DHT22;64402;44.708;37.644;2022-10-28T06:56:23;15.28;74.51
75786;DHT22;64402;44.708;37.644;2022-10-28T06:58:51;15.41;73.96
75786;DHT22;64402;44.708;37.644;2022-10-28T07:01:17;15.48;73.72
75786;DHT22;64402;44.708;37.644;2022-10-28T07:03:44;15.57;73.84
75786;DHT22;64402;44.708;37.644;2022-10-28T07:06:11;15.65;73.73
75786;DHT22;64402;44.708;37.644;2022-10-28T07:08:37;15.74;73.03
75786;DHT22;64402;44.708;37.644;2022-10-28T07:11:03;15.77;72.51
75786;DHT22;64402;44.708;37.644;2022-10-28T07:13:29;15.76;72.35
75786;DHT22;64402;44.708;37.644;2022-10-28T07:15:57;15.83;71.33
75786;DHT22;64402;44.708;37.644;2022-10-28T07:18:26;15.83;71.42
75786;DHT22;64402;44.708;37.644;2022-10-28T07:20:52;15.96;71.36
75786;DHT22;64402;44.708;37.644;2022-10-28T07:23:19;16.14;70.93
75786;DHT22;64402;44.708;37.644;2022-10-28T07:25:55;16.20;69.55
75786;DHT22;64402;44.708;37.644;2022-10-28T07:28:22;16.17;70.35
75786;DHT22;64402;44.708;37.644;2022-10-28T07:30:49;16.21;69.81
75786;DHT22;64402;44.708;37.644;2022-10-28T07:33:15;16.27;70.34
75786;DHT22;64402;44.708;37.644;2022-10-28T07:35:41;16.25;69.77
75786;DHT22;64402;44.708;37.644;2022-10-28T07:38:09;16.14;69.00
75786;DHT22;64402;44.708;37.644;2022-10-28T07:40:36;16.02;69.28
75786;DHT22;64402;44.708;37.644;2022-10-28T07:43:03;15.86;69.46
75786;DHT22;64402;44.708;37.644;2022-10-28T07:45:29;15.93;70.27
75786;DHT22;64402;44.708;37.644;2022-10-28T07:47:55;16.04;69.39
75786;DHT22;64402;44.708;37.644;2022-10-28T07:50:21;16.07;69.89
75786;DHT22;64402;44.708;37.644;2022-10-28T07:52:48;16.12;69.05
75786;DHT22;64402;44.708;37.644;2022-10-28T07:55:14;16.27;69.28
75786;DHT22;64402;44.708;37.644;2022-10-28T07:57:40;16.40;68.81
75786;DHT22;64402;44.708;37.644;2022-10-28T08:00:06;16.43;67.79
75786;DHT22;64402;44.708;37.644;2022-10-28T08:02:33;16.40;67.52
75786;DHT22;64402;44.708;37.644;2022-10-28T08:04:59;16.52;67.71
75786;DHT22;64402;44.708;37.644;2022-10-28T08:07:26;16.48;65.50
75786;DHT22;64402;44.708;37.644;2022-10-28T08:09:52;16.31;66.15
75786;DHT22;64402;44.708;37.644;2022-10-28T08:12:18;16.31;66.15
75786;DHT22;64402;44.708;37.644;2022-10-28T08:14:44;16.39;65.91
75786;DHT22;64402;44.708;37.644;2022-10-28T08:17:11;16.60;66.01
75786;DHT22;64402;44.708;37.644;2022-10-28T08:19:37;16.70;65.11
75786;DHT22;64402;44.708;37.644;2022-10-28T08:22:03;16.79;65.74
75786;DHT22;64402;44.708;37.644;2022-10-28T08:24:29;16.87;63.73
75786;DHT22;64402;44.708;37.644;2022-10-28T08:26:55;17.01;63.92
75786;DHT22;64402;44.708;37.644;2022-10-28T08:29:22;17.22;63.47
75786;DHT22;64402;44.708;37.644;2022-10-28T08:31:48;17.43;62.06
75786;DHT22;64402;44.708;37.644;2022-10-28T08:34:14;17.77;61.42
75786;DHT22;64402;44.708;37.644;2022-10-28T08:36:40;18.32;59.64
75786;DHT22;64402;44.708;37.644;2022-10-28T08:39:06;18.82;58.46
75786;DHT22;64402;44.708;37.644;2022-10-28T08:47:35;19.67;56.50
75786;DHT22;64402;44.708;37.644;2022-10-28T08:50:15;19.57;55.91
75786;DHT22;64402;44.708;37.644;2022-10-28T08:55:22;20.89;52.44
75786;DHT22;64402;44.708;37.644;2022-10-28T08:58:15;20.70;51.31
75786;DHT22;64402;44.708;37.644;2022-10-28T09:00:46;20.57;52.72
75786;DHT22;64402;44.708;37.644;2022-10-28T09:03:17;21.01;51.59
75786;DHT22;64402;44.708;37.644;2022-10-28T09:05:47;21.62;50.36
75786;DHT22;64402;44.708;37.644;2022-10-28T09:08:23;23.00;45.15
75786;DHT22;64402;44.708;37.644;2022-10-28T09:13:31;23.95;41.63
75786;DHT22;64402;44.708;37.644;2022-10-28T09:16:02;22.68;45.02
75786;DHT22;64402;44.708;37.644;2022-10-28T09:18:53;22.72;43.87
75786;DHT22;64402;44.708;37.644;2022-10-28T09:21:29;22.33;45.11
75786;DHT22;64402;44.708;37.644;2022-10-28T09:23:58;22.20;46.12
75786;DHT22;64402;44.708;37.644;2022-10-28T09:29:12;22.24;45.59
75786;DHT22;64402;44.708;37.644;2022-10-28T09:31:47;22.35;45.51
75786;DHT22;64402;44.708;37.644;2022-10-28T09:34:35;22.22;45.96
75786;DHT22;64402;44.708;37.644;2022-10-28T09:39:54;21.92;47.14
75786;DHT22;64402;44.708;37.644;2022-10-28T09:42:31;21.77;46.35
75786;DHT22;64402;44.708;37.644;2022-10-28T09:45:14;21.55;48.39
75786;DHT22;64402;44.708;37.644;2022-10-28T09:47:53;21.08;48.24
75786;DHT22;64402;44.708;37.644;2022-10-28T09:50:23;20.46;49.32
75786;DHT22;64402;44.708;37.644;2022-10-28T09:53:08;19.85;51.63
75786;DHT22;64402;44.708;37.644;2022-10-28T09:55:37;19.62;51.80
75786;DHT22;64402;44.708;37.644;2022-10-28T09:58:04;19.24;52.61
75786;DHT22;64402;44.708;37.644;2022-10-28T10:00:30;18.91;54.73
75786;DHT22;64402;44.708;37.644;2022-10-28T10:02:57;18.61;55.62
75786;DHT22;64402;44.708;37.644;2022-10-28T10:05:24;18.43;56.48
75786;DHT22;64402;44.708;37.644;2022-10-28T10:07:54;18.34;57.13
75786;DHT22;64402;44.708;37.644;2022-10-28T10:10:23;18.33;57.00
75786;DHT22;64402;44.708;37.644;2022-10-28T10:12:51;18.18;57.59
75786;DHT22;64402;44.708;37.644;2022-10-28T10:15:26;17.92;57.90
75786;DHT22;64402;44.708;37.644;2022-10-28T10:17:54;17.59;57.34
75786;DHT22;64402;44.708;37.644;2022-10-28T10:20:21;17.34;56.84
75786;DHT22;64402;44.708;37.644;2022-10-28T10:22:48;17.13;57.12
75786;DHT22;64402;44.708;37.644;2022-10-28T10:27:55;16.86;57.39
75786;DHT22;64402;44.708;37.644;2022-10-28T10:30:25;16.95;57.84
75786;DHT22;64402;44.708;37.644;2022-10-28T10:32:54;16.93;57.22
75786;DHT22;64402;44.708;37.644;2022-10-28T10:35:26;16.88;58.25
75786;DHT22;64402;44.708;37.644;2022-10-28T10:37:55;16.86;57.32
75786;DHT22;64402;44.708;37.644;2022-10-28T10:40:30;16.82;59.25
75786;DHT22;64402;44.708;37.644;2022-10-28T10:43:31;16.87;58.07
75786;DHT22;64402;44.708;37.644;2022-10-28T10:45:58;16.78;58.33
75786;DHT22;64402;44.708;37.644;2022-10-28T10:48:26;16.61;59.56
75786;DHT22;64402;44.708;37.644;2022-10-28T10:50:53;16.39;60.28
75786;DHT22;64402;44.708;37.644;2022-10-28T10:55:52;16.20;61.12
75786;DHT22;64402;44.708;37.644;2022-10-28T10:58:22;16.26;60.54
75786;DHT22;64402;44.708;37.644;2022-10-28T11:00:51;16.36;60.70
75786;DHT22;64402;44.708;37.644;2022-10-28T11:05:51;16.58;60.64
75786;DHT22;64402;44.708;37.644;2022-10-28T11:08:30;16.66;60.90
75786;DHT22;64402;44.708;37.644;2022-10-28T11:11:48;16.76;60.26
75786;DHT22;64402;44.708;37.644;2022-10-28T11:14:23;16.85;60.13
75786;DHT22;64402;44.708;37.644;2022-10-28T11:30:52;17.81;57.96
75786;DHT22;64402;44.708;37.644;2022-10-28T11:34:06;17.98;58.29
75786;DHT22;64402;44.708;37.644;2022-10-28T11:39:06;18.17;57.94
75786;DHT22;64402;44.708;37.644;2022-10-28T11:41:43;18.08;58.13
75786;DHT22;64402;44.708;37.644;2022-10-28T11:47:27;18.50;57.86
75786;DHT22;64402;44.708;37.644;2022-10-28T11:52:59;18.46;57.57
75786;DHT22;64402;44.708;37.644;2022-10-28T11:58:18;18.17;58.65
75786;DHT22;64402;44.708;37.644;2022-10-28T12:06:15;18.72;56.18
75786;DHT22;64402;44.708;37.644;2022-10-28T12:11:38;18.79;55.58
75786;DHT22;64402;44.708;37.644;2022-10-28T12:17:11;18.23;56.57
75786;DHT22;64402;44.708;37.644;2022-10-28T12:20:44;18.02;57.44
75786;DHT22;64402;44.708;37.644;2022-10-28T12:22:59;17.85;59.22
75786;DHT22;64402;44.708;37.644;2022-10-28T12:25:28;17.67;60.13
75786;DHT22;64402;44.708;37.644;2022-10-28T12:28:12;17.60;61.01
75786;DHT22;64402;44.708;37.644;2022-10-28T12:30:41;17.37;61.63
75786;DHT22;64402;44.708;37.644;2022-10-28T12:33:48;17.40;61.68
75786;DHT22;64402;44.708;37.644;2022-10-28T12:38:41;17.38;61.55
75786;DHT22;64402;44.708;37.644;2022-10-28T12:41:53;17.31;61.89
75786;DHT22;64402;44.708;37.644;2022-10-28T12:44:22;17.33;61.16
75786;DHT22;64402;44.708;37.644;2022-10-28T12:47:15;17.33;61.66
75786;DHT22;64402;44.708;37.644;2022-10-28T12:52:30;17.28;61.84
75786;DHT22;64402;44.708;37.644;2022-10-28T12:57:34;17.37;61.02
75786;DHT22;64402;44.708;37.644;2022-10-28T13:00:05;17.35;60.61
75786;DHT22;64402;44.708;37.644;2022-10-28T13:02:45;17.36;61.22
75786;DHT22;64402;44.708;37.644;2022-10-28T13:05:26;17.51;60.93
75786;DHT22;64402;44.708;37.644;2022-10-28T13:16:35;17.22;61.14
75786;DHT22;64402;44.708;37.644;2022-10-28T13:19:13;17.13;61.57
75786;DHT22;64402;44.708;37.644;2022-10-28T13:21:56;16.95;61.76
75786;DHT22;64402;44.708;37.644;2022-10-28T13:27:19;16.79;62.35
75786;DHT22;64402;44.708;37.644;2022-10-28T13:29:50;16.98;61.54
75786;DHT22;64402;44.708;37.644;2022-10-28T13:34:52;18.55;57.11
75786;DHT22;64402;44.708;37.644;2022-10-28T13:37:20;19.31;55.33
75786;DHT22;64402;44.708;37.644;2022-10-28T13:39:47;20.14;53.06
75786;DHT22;64402;44.708;37.644;2022-10-28T13:44:48;20.70;50.02
75786;DHT22;64402;44.708;37.644;2022-10-28T13:47:41;20.61;51.02
75786;DHT22;64402;44.708;37.644;2022-10-28T13:52:35;20.10;52.53
75786;DHT22;64402;44.708;37.644;2022-10-28T13:57:42;19.27;55.90
75786;DHT22;64402;44.708;37.644;2022-10-28T14:02:56;18.73;57.29
75786;DHT22;64402;44.708;37.644;2022-10-28T14:08:07;18.19;58.82
75786;DHT22;64402;44.708;37.644;2022-10-28T14:13:22;17.88;60.05
75786;DHT22;64402;44.708;37.644;2022-10-28T14:15:49;17.41;60.47
75786;DHT22;64402;44.708;37.644;2022-10-28T14:31:31;16.70;62.93
75786;DHT22;64402;44.708;37.644;2022-10-28T14:50:23;16.22;65.07
75786;DHT22;64402;44.708;37.644;2022-10-28T14:52:52;16.19;64.31
75786;DHT22;64402;44.708;37.644;2022-10-28T14:55:23;16.07;64.72
75786;DHT22;64402;44.708;37.644;2022-10-28T14:57:51;15.96;64.88
75786;DHT22;64402;44.708;37.644;2022-10-28T15:00:22;15.85;65.82
75786;DHT22;64402;44.708;37.644;2022-10-28T15:02:51;15.74;65.59
75786;DHT22;64402;44.708;37.644;2022-10-28T15:05:21;15.63;66.07
75786;DHT22;64402;44.708;37.644;2022-10-28T15:07:51;15.55;66.30
75786;DHT22;64402;44.708;37.644;2022-10-28T15:10:21;15.49;66.97
75786;DHT22;64402;44.708;37.644;2022-10-28T15:12:49;15.39;67.41
75786;DHT22;64402;44.708;37.644;2022-10-28T15:15:16;15.28;68.50
75786;DHT22;64402;44.708;37.644;2022-10-28T15:17:43;15.24;67.91
75786;DHT22;64402;44.708;37.644;2022-10-28T15:22:47;15.19;68.30
75786;DHT22;64402;44.708;37.644;2022-10-28T15:25:14;15.22;68.39
75786;DHT22;64402;44.708;37.644;2022-10-28T15:27:44;15.22;68.66
75786;DHT22;64402;44.708;37.644;2022-10-28T15:30:22;15.18;69.36
75786;DHT22;64402;44.708;37.644;2022-10-28T15:32:50;15.21;68.57
75786;DHT22;64402;44.708;37.644;2022-10-28T15:37:56;15.19;68.84
75786;DHT22;64402;44.708;37.644;2022-10-28T15:40:31;15.22;69.36
75786;DHT22;64402;44.708;37.644;2022-10-28T15:43:20;15.18;70.19
75786;DHT22;64402;44.708;37.644;2022-10-28T15:45:48;15.17;69.26
75786;DHT22;64402;44.708;37.644;2022-10-28T15:48:23;15.14;70.40
75786;DHT22;64402;44.708;37.644;2022-10-28T15:51:14;15.14;70.58
75786;DHT22;64402;44.708;37.644;2022-10-28T15:53:44;15.15;69.48
75786;DHT22;64402;44.708;37.644;2022-10-28T15:58:42;15.06;69.82
75786;DHT22;64402;44.708;37.644;2022-10-28T16:03:56;15.00;70.53
75786;DHT22;64402;44.708;37.644;2022-10-28T16:09:03;14.99;71.42
75786;DHT22;64402;44.708;37.644;2022-10-28T16:11:32;14.98;71.22
75786;DHT22;64402;44.708;37.644;2022-10-28T16:14:04;14.99;71.08
75786;DHT22;64402;44.708;37.644;2022-10-28T16:16:32;14.99;70.68
75786;DHT22;64402;44.708;37.644;2022-10-28T16:19:09;15.01;71.05
75786;DHT22;64402;44.708;37.644;2022-10-28T16:21:39;15.04;70.53
75786;DHT22;64402;44.708;37.644;2022-10-28T16:24:05;15.06;70.70
75786;DHT22;64402;44.708;37.644;2022-10-28T16:26:31;15.04;70.57
75786;DHT22;64402;44.708;37.644;2022-10-28T16:28:58;15.06;70.57
75786;DHT22;64402;44.708;37.644;2022-10-28T16:31:26;15.03;70.89
75786;DHT22;64402;44.708;37.644;2022-10-28T16:33:53;15.00;71.09
75786;DHT22;64402;44.708;37.644;2022-10-28T16:36:19;15.01;70.98
75786;DHT22;64402;44.708;37.644;2022-10-28T16:38:46;15.01;71.04
75786;DHT22;64402;44.708;37.644;2022-10-28T16:41:16;14.98;71.56
75786;DHT22;64402;44.708;37.644;2022-10-28T16:43:43;14.98;71.17
75786;DHT22;64402;44.708;37.644;2022-10-28T16:46:11;14.96;71.73
75786;DHT22;64402;44.708;37.644;2022-10-28T16:48:38;14.94;71.22
75786;DHT22;64402;44.708;37.644;2022-10-28T16:51:09;14.88;71.70
75786;DHT22;64402;44.708;37.644;2022-10-28T16:53:36;14.87;71.55
75786;DHT22;64402;44.708;37.644;2022-10-28T16:56:04;14.84;71.69
75786;DHT22;64402;44.708;37.644;2022-10-28T16:58:32;14.82;71.89
75786;DHT22;64402;44.708;37.644;2022-10-28T17:00:58;14.78;72.00
75786;DHT22;64402;44.708;37.644;2022-10-28T17:03:25;14.81;71.83
75786;DHT22;64402;44.708;37.644;2022-10-28T17:05:51;14.73;71.91
75786;DHT22;64402;44.708;37.644;2022-10-28T17:08:17;14.75;72.02
75786;DHT22;64402;44.708;37.644;2022-10-28T17:10:44;14.75;71.93
75786;DHT22;64402;44.708;37.644;2022-10-28T17:13:14;14.70;72.62
75786;DHT22;64402;44.708;37.644;2022-10-28T17:15:41;14.66;72.53
75786;DHT22;64402;44.708;37.644;2022-10-28T17:18:12;14.62;72.68
75786;DHT22;64402;44.708;37.644;2022-10-28T17:20:40;14.56;72.64
75786;DHT22;64402;44.708;37.644;2022-10-28T17:23:06;14.50;72.71
75786;DHT22;64402;44.708;37.644;2022-10-28T17:25:32;14.42;73.20
75786;DHT22;64402;44.708;37.644;2022-10-28T17:27:58;14.37;73.17
75786;DHT22;64402;44.708;37.644;2022-10-28T17:30:25;14.34;73.57
75786;DHT22;64402;44.708;37.644;2022-10-28T17:32:52;14.21;73.80
75786;DHT22;64402;44.708;37.644;2022-10-28T17:35:20;14.21;74.02
75786;DHT22;64402;44.708;37.644;2022-10-28T17:37:46;14.13;74.04
75786;DHT22;64402;44.708;37.644;2022-10-28T17:40:12;14.09;74.15
75786;DHT22;64402;44.708;37.644;2022-10-28T17:42:39;14.11;74.28
75786;DHT22;64402;44.708;37.644;2022-10-28T17:45:06;14.13;74.12
75786;DHT22;64402;44.708;37.644;2022-10-28T17:47:33;14.18;73.58
75786;DHT22;64402;44.708;37.644;2022-10-28T17:49:59;14.17;73.70
75786;DHT22;64402;44.708;37.644;2022-10-28T17:52:27;14.17;73.91
75786;DHT22;64402;44.708;37.644;2022-10-28T17:54:53;14.18;73.76
75786;DHT22;64402;44.708;37.644;2022-10-28T17:57:20;14.18;74.06
75786;DHT22;64402;44.708;37.644;2022-10-28T17:59:46;14.09;74.33
75786;DHT22;64402;44.708;37.644;2022-10-28T18:02:12;14.06;74.21
75786;DHT22;64402;44.708;37.644;2022-10-28T18:04:40;14.09;74.20
75786;DHT22;64402;44.708;37.644;2022-10-28T18:07:07;14.13;73.86
75786;DHT22;64402;44.708;37.644;2022-10-28T18:09:33;14.14;73.91
75786;DHT22;64402;44.708;37.644;2022-10-28T18:12:00;14.09;74.07
75786;DHT22;64402;44.708;37.644;2022-10-28T18:14:29;14.09;74.11
75786;DHT22;64402;44.708;37.644;2022-10-28T18:16:55;14.12;73.73
75786;DHT22;64402;44.708;37.644;2022-10-28T18:19:21;14.12;73.66
75786;DHT22;64402;44.708;37.644;2022-10-28T18:21:47;14.13;73.51
75786;DHT22;64402;44.708;37.644;2022-10-28T18:24:15;14.10;73.60
75786;DHT22;64402;44.708;37.644;2022-10-28T18:26:41;14.03;74.02
75786;DHT22;64402;44.708;37.644;2022-10-28T18:29:09;14.00;73.83
75786;DHT22;64402;44.708;37.644;2022-10-28T18:31:36;13.98;74.13